createdAt,value
2017-08-25T00:01:30.388Z,46.30
2017-08-25T00:03:56.467Z,65.03
2017-08-25T00:06:22.559Z,53.17
2017-08-25T00:08:48.653Z,59.37
2017-08-25T00:11:14.702Z,48.00
2017-08-25T00:13:40.766Z,40.40
2017-08-25T00:16:06.844Z,50.40
2017-08-25T00:18:32.939Z,46.10
2017-08-25T00:20:58.987Z,54.43
2017-08-25T00:23:25.062Z,52.13
2017-08-25T00:25:51.127Z,56.20
2017-08-25T00:28:17.197Z,70.07
2017-08-25T00:30:43.258Z,63.90
2017-08-25T00:33:09.311Z,62.63
2017-08-25T00:35:35.389Z,58.70
2017-08-25T00:38:01.467Z,55.57
2017-08-25T00:40:27.562Z,55.10
2017-08-25T00:42:53.750Z,54.30
2017-08-25T00:45:19.822Z,62.23
2017-08-25T00:47:45.970Z,51.90
2017-08-25T00:50:12.074Z,47.87
2017-08-25T00:52:38.123Z,62.30
2017-08-25T00:55:04.194Z,60.23
2017-08-25T00:57:30.262Z,57.33
2017-08-25T00:59:56.321Z,54.80
2017-08-25T01:02:22.438Z,58.30
2017-08-25T01:04:48.502Z,52.20
2017-08-25T01:07:14.664Z,63.63
2017-08-25T01:09:40.775Z,47.90
2017-08-25T01:12:06.878Z,57.30
2017-08-25T01:14:32.942Z,54.37
2017-08-25T01:16:59.016Z,54.43
2017-08-25T01:19:25.118Z,66.07
2017-08-25T01:21:51.211Z,55.80
2017-08-25T01:24:17.278Z,57.13
2017-08-25T01:26:43.386Z,53.77
2017-08-25T01:29:09.573Z,63.03
2017-08-25T01:31:35.633Z,56.53
2017-08-25T01:34:01.716Z,58.13
2017-08-25T01:36:27.797Z,55.57
2017-08-25T01:38:53.870Z,60.50
2017-08-25T01:41:19.935Z,60.87
2017-08-25T01:43:46.011Z,64.53
2017-08-25T01:46:12.077Z,60.37
2017-08-25T01:48:38.157Z,77.57
2017-08-25T01:51:04.206Z,57.90
2017-08-25T01:53:30.283Z,57.30
2017-08-25T01:55:56.342Z,69.90
2017-08-25T01:58:22.438Z,63.20
2017-08-25T02:00:48.514Z,59.33
2017-08-25T02:03:14.585Z,62.27
2017-08-25T02:05:40.638Z,61.77
2017-08-25T02:08:06.738Z,77.70
2017-08-25T02:10:32.803Z,69.83
2017-08-25T02:12:58.906Z,63.07
2017-08-25T02:15:24.989Z,67.00
2017-08-25T02:17:51.073Z,78.50
2017-08-25T02:20:17.139Z,63.40
2017-08-25T02:22:43.213Z,68.07
2017-08-25T02:25:09.314Z,60.23
2017-08-25T02:27:35.388Z,62.93
2017-08-25T02:30:01.477Z,67.97
2017-08-25T02:32:27.527Z,59.90
2017-08-25T02:34:53.615Z,61.90
2017-08-25T02:37:19.658Z,65.53
2017-08-25T02:39:45.754Z,60.87
2017-08-25T02:42:11.890Z,68.03
2017-08-25T02:44:38.018Z,70.10
2017-08-25T02:47:04.071Z,70.53
2017-08-25T02:49:30.370Z,62.50
2017-08-25T02:51:56.415Z,70.00
2017-08-25T02:54:22.519Z,62.50
2017-08-25T02:56:48.566Z,61.97
2017-08-25T02:59:14.638Z,70.87
2017-08-25T03:01:40.698Z,60.33
2017-08-25T03:04:06.847Z,57.30
2017-08-25T03:06:32.894Z,55.37
2017-08-25T03:08:58.978Z,57.07
2017-08-25T03:11:25.060Z,69.00
2017-08-25T03:13:51.130Z,59.33
2017-08-25T03:16:17.212Z,51.83
2017-08-25T03:18:43.295Z,51.77
2017-08-25T03:21:09.366Z,55.30
2017-08-25T03:23:35.614Z,52.07
2017-08-25T03:26:01.682Z,51.10
2017-08-25T03:28:27.734Z,46.73
2017-08-25T03:30:53.811Z,46.83
2017-08-25T03:33:19.890Z,44.33
2017-08-25T03:35:45.974Z,47.53
2017-08-25T03:38:12.046Z,48.03
2017-08-25T03:40:38.128Z,42.20
2017-08-25T03:43:04.179Z,40.83
2017-08-25T03:45:30.298Z,46.17
2017-08-25T03:47:56.367Z,48.73
2017-08-25T03:50:22.459Z,39.10
2017-08-25T03:52:48.504Z,39.07
2017-08-25T03:55:14.570Z,42.17
2017-08-25T03:57:40.630Z,41.70
2017-08-25T04:00:07.022Z,44.90
2017-08-25T04:02:33.074Z,46.40
2017-08-25T04:04:59.335Z,42.07
2017-08-25T04:07:25.429Z,43.03
2017-08-25T04:09:51.525Z,41.10
2017-08-25T04:12:17.630Z,42.40
2017-08-25T04:14:43.711Z,35.63
2017-08-25T04:17:09.765Z,37.80
2017-08-25T04:19:35.842Z,37.67
2017-08-25T04:22:01.894Z,39.13
2017-08-25T04:24:28.050Z,38.63
2017-08-25T04:26:54.127Z,38.60
2017-08-25T04:29:20.185Z,38.27
2017-08-25T04:31:46.276Z,35.23
2017-08-25T04:34:12.423Z,39.57
2017-08-25T04:36:38.687Z,42.83
2017-08-25T04:39:04.758Z,38.70
2017-08-25T04:41:30.858Z,47.17
2017-08-25T04:43:56.995Z,45.47
2017-08-25T04:46:23.077Z,47.10
2017-08-25T04:48:49.136Z,43.97
2017-08-25T04:51:15.222Z,41.03
2017-08-25T04:53:41.270Z,43.03
2017-08-25T04:56:07.364Z,47.30
2017-08-25T04:58:33.465Z,44.10
2017-08-25T05:00:59.557Z,39.60
2017-08-25T05:03:25.609Z,47.80
2017-08-25T05:05:51.702Z,44.13
2017-08-25T05:08:17.799Z,45.53
2017-08-25T05:10:43.871Z,39.57
2017-08-25T05:13:09.929Z,43.20
2017-08-25T05:15:36.018Z,46.27
2017-08-25T05:18:02.075Z,39.43
2017-08-25T05:20:28.154Z,41.23
2017-08-25T05:22:54.212Z,44.13
2017-08-25T05:25:20.303Z,42.33
2017-08-25T05:27:46.379Z,48.07
2017-08-25T05:30:12.451Z,44.77
2017-08-25T05:32:38.603Z,37.00
2017-08-25T05:35:04.674Z,36.80
2017-08-25T05:37:30.747Z,41.23
2017-08-25T05:39:56.825Z,45.30
2017-08-25T05:42:22.888Z,40.03
2017-08-25T05:44:48.974Z,38.10
2017-08-25T05:47:15.042Z,40.80
2017-08-25T05:49:41.098Z,36.90
2017-08-25T05:52:07.480Z,40.20
2017-08-25T05:54:33.618Z,37.00
2017-08-25T05:56:59.701Z,42.50
2017-08-25T05:59:25.768Z,38.07
2017-08-25T06:01:51.862Z,37.00
2017-08-25T06:04:17.931Z,36.93
2017-08-25T06:06:44.006Z,35.70
2017-08-25T06:09:10.081Z,32.33
2017-08-25T06:11:36.158Z,32.03
2017-08-25T06:14:02.235Z,30.13
2017-08-25T06:16:28.328Z,30.27
2017-08-25T06:18:54.385Z,26.70
2017-08-25T06:21:20.438Z,27.17
2017-08-25T06:23:46.508Z,33.23
2017-08-25T06:26:12.586Z,26.70
2017-08-25T06:28:38.658Z,30.60
2017-08-25T06:31:04.742Z,25.83
2017-08-25T06:33:30.825Z,28.97
2017-08-25T06:35:56.890Z,19.27
2017-08-25T06:38:22.950Z,22.10
2017-08-25T06:40:49.011Z,23.97
2017-08-25T06:43:15.086Z,22.13
2017-08-25T06:45:41.130Z,18.80
2017-08-25T06:48:07.202Z,22.30
2017-08-25T06:50:33.253Z,18.70
2017-08-25T06:52:59.294Z,20.33
2017-08-25T06:55:25.358Z,16.30
2017-08-25T06:57:51.434Z,17.40
2017-08-25T07:00:17.490Z,16.33
2017-08-25T07:02:43.571Z,21.10
2017-08-25T07:05:09.629Z,15.20
2017-08-25T07:07:35.714Z,12.93
2017-08-25T07:10:01.755Z,12.60
2017-08-25T07:12:27.807Z,13.60
2017-08-25T07:14:53.881Z,12.87
2017-08-25T07:17:19.943Z,14.17
2017-08-25T07:19:46.007Z,10.87
2017-08-25T07:22:12.119Z,10.97
2017-08-25T07:24:38.194Z,9.70
2017-08-25T07:27:04.279Z,8.40
2017-08-25T07:29:30.358Z,11.20
2017-08-25T07:31:56.410Z,10.03
2017-08-25T07:34:22.482Z,8.60
2017-08-25T07:36:48.526Z,9.77
2017-08-25T07:39:14.593Z,8.77
2017-08-25T07:41:40.679Z,7.60
2017-08-25T07:44:06.771Z,16.43
2017-08-25T07:46:32.835Z,8.10
2017-08-25T07:48:58.909Z,10.60
2017-08-25T07:51:24.954Z,9.63
2017-08-25T07:53:51.042Z,4.27
2017-08-25T07:56:17.094Z,9.47
2017-08-25T07:58:43.149Z,9.33
2017-08-25T08:01:09.194Z,11.30
2017-08-25T08:03:35.266Z,7.60
2017-08-25T08:06:01.327Z,12.87
2017-08-25T08:08:27.401Z,9.30
2017-08-25T08:10:53.454Z,11.07
2017-08-25T08:13:19.493Z,5.20
2017-08-25T08:15:45.554Z,5.57
2017-08-25T08:18:11.629Z,6.27
2017-08-25T08:20:37.710Z,9.30
2017-08-25T08:23:03.765Z,8.50
2017-08-25T08:25:29.854Z,7.53
2017-08-25T08:27:55.908Z,5.00
2017-08-25T08:30:21.982Z,5.03
2017-08-25T08:32:48.047Z,5.03
2017-08-25T08:35:14.114Z,6.57
2017-08-25T08:37:40.171Z,10.73
2017-08-25T08:40:06.234Z,5.70
2017-08-25T08:42:32.291Z,2.77
2017-08-25T08:44:58.367Z,7.83
2017-08-25T08:47:24.409Z,5.37
2017-08-25T08:49:50.462Z,5.27
2017-08-25T08:52:16.540Z,5.40
2017-08-25T08:54:42.588Z,4.17
2017-08-25T08:57:08.666Z,4.20
2017-08-25T08:59:34.702Z,6.10
2017-08-25T09:02:00.767Z,5.10
2017-08-25T09:04:26.828Z,4.17
2017-08-25T09:06:52.912Z,3.33
2017-08-25T09:09:18.970Z,6.13
2017-08-25T09:11:45.030Z,8.27
2017-08-25T09:14:11.082Z,2.20
2017-08-25T09:16:37.162Z,4.60
2017-08-25T09:19:03.220Z,2.87
2017-08-25T09:21:29.314Z,5.13
2017-08-25T09:23:55.386Z,5.20
2017-08-25T09:26:21.465Z,3.17
2017-08-25T09:28:47.610Z,6.43
2017-08-25T09:31:13.661Z,9.33
2017-08-25T09:33:39.742Z,3.67
2017-08-25T09:36:05.801Z,2.90
2017-08-25T09:38:31.873Z,2.30
2017-08-25T09:40:57.941Z,4.40
2017-08-25T09:43:24.026Z,3.30
2017-08-25T09:45:50.086Z,2.63
2017-08-25T09:48:16.158Z,2.43
2017-08-25T09:50:42.198Z,3.53
2017-08-25T09:53:08.258Z,4.40
2017-08-25T09:55:34.318Z,5.80
2017-08-25T09:58:00.409Z,4.30
2017-08-25T10:00:26.507Z,5.37
2017-08-25T10:02:52.593Z,4.40
2017-08-25T10:05:18.645Z,5.17
2017-08-25T10:07:44.715Z,4.00
2017-08-25T10:10:10.766Z,2.83
2017-08-25T10:12:36.842Z,5.83
2017-08-25T10:15:02.902Z,4.90
2017-08-25T10:17:28.975Z,4.40
2017-08-25T10:19:55.018Z,5.33
2017-08-25T10:22:21.123Z,3.23
2017-08-25T10:24:47.181Z,3.67
2017-08-25T10:27:13.306Z,4.93
2017-08-25T10:29:39.370Z,3.50
2017-08-25T10:32:05.444Z,5.07
2017-08-25T10:34:43.820Z,6.57
2017-08-25T10:37:22.240Z,2.50
2017-08-25T10:40:00.703Z,4.57
2017-08-25T10:45:25.582Z,2.50
2017-08-25T10:47:51.647Z,4.13
2017-08-25T10:50:17.694Z,4.93
2017-08-25T10:52:43.755Z,4.77
2017-08-25T10:55:09.818Z,6.03
2017-08-25T10:57:35.895Z,3.23
2017-08-25T11:00:01.973Z,4.83
2017-08-25T11:02:28.034Z,3.50
2017-08-25T11:04:54.121Z,3.70
2017-08-25T11:07:20.187Z,2.30
2017-08-25T11:09:46.271Z,4.17
2017-08-25T11:12:12.350Z,3.37
2017-08-25T11:14:38.419Z,2.70
2017-08-25T11:17:04.465Z,5.50
2017-08-25T11:19:30.541Z,5.80
2017-08-25T11:21:56.594Z,3.20
2017-08-25T11:24:22.663Z,7.47
2017-08-25T11:26:48.755Z,5.40
2017-08-25T11:29:14.826Z,5.53
2017-08-25T11:31:40.867Z,6.83
2017-08-25T11:34:06.934Z,5.67
2017-08-25T11:36:32.982Z,7.43
2017-08-25T11:38:59.050Z,5.07
2017-08-25T11:41:25.123Z,5.00
2017-08-25T11:43:51.202Z,10.13
2017-08-25T11:46:17.250Z,4.07
2017-08-25T11:48:43.326Z,3.20
2017-08-25T11:51:09.386Z,5.10
2017-08-25T11:53:35.444Z,3.20
2017-08-25T11:56:01.490Z,4.67
2017-08-25T11:58:27.562Z,9.90
2017-08-25T12:00:53.612Z,3.93
2017-08-25T12:03:19.678Z,4.23
2017-08-25T12:05:45.731Z,4.73
2017-08-25T12:08:11.887Z,9.00
2017-08-25T12:10:38.038Z,5.73
2017-08-25T12:13:04.107Z,4.30
2017-08-25T12:15:31.546Z,3.30
2017-08-25T12:17:57.649Z,7.30
2017-08-25T12:20:23.700Z,5.80
2017-08-25T12:22:49.784Z,6.20
2017-08-25T12:25:15.834Z,6.97
2017-08-25T12:27:41.921Z,8.47
2017-08-25T12:30:07.982Z,4.73
2017-08-25T12:32:34.127Z,4.30
2017-08-25T12:35:00.185Z,7.40
2017-08-25T12:37:26.237Z,3.27
2017-08-25T12:39:52.310Z,5.87
2017-08-25T12:42:18.381Z,8.67
2017-08-25T12:44:44.454Z,8.10
2017-08-25T12:47:10.510Z,4.87
2017-08-25T12:49:36.577Z,7.33
2017-08-25T12:52:02.630Z,4.10
2017-08-25T12:54:28.723Z,4.00
2017-08-25T12:56:54.782Z,3.70
2017-08-25T12:59:20.869Z,3.80
2017-08-25T13:01:46.915Z,4.23
2017-08-25T13:04:13.001Z,6.80
2017-08-25T13:06:39.069Z,4.10
2017-08-25T13:09:05.154Z,7.63
2017-08-25T13:11:31.210Z,3.23
2017-08-25T13:13:57.322Z,4.73
2017-08-25T13:16:23.651Z,5.10
2017-08-25T13:18:49.875Z,6.10
2017-08-25T13:21:15.954Z,5.67
2017-08-25T13:23:42.018Z,5.60
2017-08-25T13:26:08.098Z,4.27
2017-08-25T13:28:34.170Z,4.00
2017-08-25T13:31:00.218Z,2.57
2017-08-25T13:33:26.286Z,6.60
2017-08-25T13:35:52.345Z,3.20
2017-08-25T13:38:18.411Z,7.60
2017-08-25T13:40:44.457Z,4.27
2017-08-25T13:43:10.586Z,3.40
2017-08-25T13:45:36.630Z,4.50
2017-08-25T13:48:02.694Z,5.60
2017-08-25T13:50:29.186Z,2.30
2017-08-25T13:52:55.272Z,7.87
2017-08-25T13:55:21.322Z,5.27
2017-08-25T13:57:47.380Z,4.90
2017-08-25T14:00:13.521Z,3.90
2017-08-25T14:02:39.796Z,7.80
2017-08-25T14:05:05.902Z,3.90
2017-08-25T14:07:31.951Z,8.93
2017-08-25T14:09:58.019Z,6.00
2017-08-25T14:12:24.096Z,4.63
2017-08-25T14:17:23.007Z,3.20
2017-08-25T14:19:49.078Z,3.43
2017-08-25T14:22:15.129Z,3.73
2017-08-25T14:24:41.206Z,4.20
2017-08-25T14:27:07.283Z,6.23
2017-08-25T14:29:33.366Z,4.40
2017-08-25T14:31:59.421Z,8.20
2017-08-25T14:34:25.482Z,3.40
2017-08-25T14:36:51.555Z,3.70
2017-08-25T14:39:17.608Z,2.40
2017-08-25T14:41:43.682Z,8.33
2017-08-25T14:44:09.726Z,2.90
2017-08-25T14:46:35.790Z,4.77
2017-08-25T14:49:01.846Z,4.07
2017-08-25T14:51:27.919Z,3.93
2017-08-25T14:53:53.970Z,6.17
2017-08-25T14:56:20.031Z,6.73
2017-08-25T14:58:46.081Z,2.90
2017-08-25T15:01:12.191Z,3.40
2017-08-25T15:03:38.279Z,5.73
2017-08-25T15:06:04.356Z,3.03
2017-08-25T15:08:30.411Z,4.20
2017-08-25T15:10:56.554Z,8.27
2017-08-25T15:13:22.607Z,2.40
2017-08-25T15:15:48.659Z,3.87
2017-08-25T15:18:14.759Z,3.50
2017-08-25T15:20:40.833Z,4.90
2017-08-25T15:23:06.924Z,2.53
2017-08-25T15:25:32.989Z,6.00
2017-08-25T15:27:59.071Z,2.47
2017-08-25T15:30:25.122Z,2.57
2017-08-25T15:32:51.206Z,6.10
2017-08-25T15:35:17.663Z,4.10
2017-08-25T15:37:43.734Z,4.40
2017-08-25T15:40:09.792Z,7.83
2017-08-25T15:42:35.871Z,3.40
2017-08-25T15:45:01.922Z,4.43
2017-08-25T15:47:27.994Z,2.90
2017-08-25T15:49:54.043Z,4.93
2017-08-25T15:52:20.110Z,2.77
2017-08-25T15:54:46.154Z,4.03
2017-08-25T15:57:12.262Z,10.83
2017-08-25T15:59:38.317Z,5.20
2017-08-25T16:02:04.426Z,2.30
2017-08-25T16:04:30.485Z,3.43
2017-08-25T16:06:56.542Z,2.40
2017-08-25T16:09:22.593Z,6.83
2017-08-25T16:11:48.684Z,4.20
2017-08-25T16:14:14.737Z,3.93
2017-08-25T16:16:40.795Z,5.43
2017-08-25T16:19:06.874Z,4.70
2017-08-25T16:21:32.922Z,6.17
2017-08-25T16:23:58.987Z,2.77
2017-08-25T16:26:25.072Z,5.97
2017-08-25T16:28:51.137Z,3.10
2017-08-25T16:31:17.184Z,4.30
2017-08-25T16:33:43.246Z,9.90
2017-08-25T16:36:09.282Z,7.23
2017-08-25T16:38:35.350Z,3.90
2017-08-25T16:41:01.398Z,5.80
2017-08-25T16:43:27.462Z,8.43
2017-08-25T16:45:53.509Z,4.37
2017-08-25T16:48:19.566Z,4.27
2017-08-25T16:50:45.679Z,3.40
2017-08-25T16:53:11.746Z,5.47
2017-08-25T16:55:37.817Z,3.60
2017-08-25T16:58:03.891Z,3.80
2017-08-25T17:00:29.954Z,3.10
2017-08-25T17:02:56.059Z,4.73
2017-08-25T17:05:22.127Z,5.97
2017-08-25T17:07:48.197Z,5.93
2017-08-25T17:10:14.282Z,4.27
2017-08-25T17:12:40.334Z,5.27
2017-08-25T17:15:06.426Z,3.30
2017-08-25T17:17:32.503Z,4.30
2017-08-25T17:19:58.594Z,5.20
2017-08-25T17:22:24.644Z,2.63
2017-08-25T17:24:50.706Z,4.67
2017-08-25T17:27:16.770Z,6.40
2017-08-25T17:29:42.855Z,4.80
2017-08-25T17:32:08.915Z,7.23
2017-08-25T17:34:34.990Z,3.40
2017-08-25T17:37:01.030Z,3.00
2017-08-25T17:39:27.359Z,4.20
2017-08-25T17:41:53.424Z,6.53
2017-08-25T17:44:19.871Z,4.93
2017-08-25T17:46:46.253Z,2.80
2017-08-25T17:49:12.379Z,6.13
2017-08-25T17:51:38.421Z,18.90
2017-08-25T17:54:04.490Z,4.47
2017-08-25T17:56:30.567Z,6.20
2017-08-25T17:58:56.646Z,4.87
2017-08-25T18:01:22.702Z,3.67
2017-08-25T18:03:48.758Z,6.23
2017-08-25T18:06:14.818Z,5.57
2017-08-25T18:08:40.883Z,7.03
2017-08-25T18:11:06.934Z,7.60
2017-08-25T18:13:33.002Z,7.10
2017-08-25T18:15:59.093Z,7.57
2017-08-25T18:18:25.152Z,3.37
2017-08-25T18:20:51.217Z,5.17
2017-08-25T18:23:17.258Z,7.60
2017-08-25T18:25:43.346Z,5.33
2017-08-25T18:28:09.389Z,4.03
2017-08-25T18:30:35.459Z,6.33
2017-08-25T18:33:01.531Z,7.33
2017-08-25T18:35:27.594Z,5.43
2017-08-25T18:37:53.655Z,3.90
2017-08-25T18:40:19.774Z,5.20
2017-08-25T18:42:45.830Z,5.03
2017-08-25T18:45:11.926Z,7.33
2017-08-25T18:47:38.007Z,8.80
2017-08-25T18:50:04.111Z,7.50
2017-08-25T18:52:30.158Z,5.57
2017-08-25T18:54:56.206Z,7.27
2017-08-25T18:57:22.274Z,4.50
2017-08-25T18:59:48.327Z,4.57
2017-08-25T19:02:14.399Z,7.63
2017-08-25T19:04:40.483Z,4.80
2017-08-25T19:07:06.639Z,6.80
2017-08-25T19:09:32.726Z,11.10
2017-08-25T19:11:59.682Z,5.97
2017-08-25T19:14:26.110Z,9.63
2017-08-25T19:16:52.295Z,9.43
2017-08-25T19:19:18.349Z,7.80
2017-08-25T19:21:44.459Z,7.70
2017-08-25T19:24:10.532Z,7.50
2017-08-25T19:26:36.618Z,10.37
2017-08-25T19:29:02.671Z,16.50
2017-08-25T19:31:28.734Z,7.20
2017-08-25T19:33:54.781Z,10.10
2017-08-25T19:36:20.887Z,7.60
2017-08-25T19:38:46.941Z,6.80
2017-08-25T19:41:13.067Z,5.77
2017-08-25T19:43:39.118Z,9.07
2017-08-25T19:46:05.210Z,8.77
2017-08-25T19:48:31.263Z,5.80
2017-08-25T19:50:57.327Z,12.60
2017-08-25T19:53:23.398Z,10.37
2017-08-25T19:55:49.463Z,8.23
2017-08-25T19:58:15.543Z,7.80
2017-08-25T20:00:41.602Z,8.10
2017-08-25T20:03:07.668Z,9.93
2017-08-25T20:05:33.709Z,8.90
2017-08-25T20:07:59.773Z,11.97
2017-08-25T20:10:25.826Z,10.10
2017-08-25T20:12:51.886Z,13.80
2017-08-25T20:15:17.942Z,6.43
2017-08-25T20:17:44.018Z,8.53
2017-08-25T20:20:10.066Z,11.50
2017-08-25T20:22:36.167Z,8.53
2017-08-25T20:25:02.230Z,6.90
2017-08-25T20:27:28.330Z,5.87
2017-08-25T20:29:54.418Z,8.83
2017-08-25T20:32:20.507Z,7.00
2017-08-25T20:34:46.559Z,10.47
2017-08-25T20:37:12.649Z,7.60
2017-08-25T20:39:38.721Z,7.70
2017-08-25T20:42:04.791Z,8.23
2017-08-25T20:44:30.946Z,10.60
2017-08-25T20:46:57.350Z,13.63
2017-08-25T20:49:23.394Z,8.77
2017-08-25T20:51:49.462Z,7.53
2017-08-25T20:54:15.514Z,6.53
2017-08-25T20:56:41.600Z,7.50
2017-08-25T20:59:07.650Z,6.60
2017-08-25T21:01:33.723Z,8.77
2017-08-25T21:03:59.765Z,9.97
2017-08-25T21:06:26.587Z,14.90
2017-08-25T21:08:52.650Z,9.67
2017-08-25T21:11:18.721Z,13.43
2017-08-25T21:13:44.774Z,13.03
2017-08-25T21:16:10.847Z,12.43
2017-08-25T21:18:36.890Z,14.20
2017-08-25T21:21:02.975Z,18.33
2017-08-25T21:23:29.034Z,12.53
2017-08-25T21:25:55.126Z,10.50
2017-08-25T21:28:21.184Z,9.57
2017-08-25T21:30:47.246Z,9.03
2017-08-25T21:33:13.323Z,10.70
2017-08-25T21:35:39.390Z,8.20
2017-08-25T21:38:05.431Z,11.80
2017-08-25T21:40:31.494Z,18.37
2017-08-25T21:42:57.543Z,11.70
2017-08-25T21:45:23.609Z,9.10
2017-08-25T21:47:49.662Z,9.57
2017-08-25T21:50:15.742Z,9.50
2017-08-25T21:52:41.802Z,16.47
2017-08-25T21:55:07.886Z,12.17
2017-08-25T21:57:34.879Z,8.37
2017-08-25T22:00:00.922Z,8.87
2017-08-25T22:02:27.006Z,9.53
2017-08-25T22:04:53.131Z,7.70
2017-08-25T22:07:19.194Z,8.60
2017-08-25T22:09:45.242Z,14.37
2017-08-25T22:12:11.310Z,14.93
2017-08-25T22:14:37.367Z,13.80
2017-08-25T22:17:03.439Z,9.30
2017-08-25T22:19:29.490Z,8.83
2017-08-25T22:21:55.543Z,10.90
2017-08-25T22:24:21.589Z,11.00
2017-08-25T22:26:47.743Z,12.90
2017-08-25T22:29:13.787Z,14.57
2017-08-25T22:31:39.882Z,15.43
2017-08-25T22:34:05.934Z,8.40
2017-08-25T22:36:31.990Z,9.20
2017-08-25T22:38:58.025Z,13.30
2017-08-25T22:41:24.092Z,15.47
2017-08-25T22:43:50.158Z,13.30
2017-08-25T22:46:16.234Z,8.93
2017-08-25T22:48:42.303Z,8.57
2017-08-25T22:51:08.369Z,9.80
2017-08-25T22:53:34.436Z,8.60
2017-08-25T22:56:00.506Z,11.23
2017-08-25T22:58:26.562Z,14.80
2017-08-25T23:00:52.632Z,15.40
2017-08-25T23:03:18.685Z,11.00
2017-08-25T23:05:44.762Z,10.17
2017-08-25T23:08:10.810Z,10.00
2017-08-25T23:10:36.874Z,8.90
2017-08-25T23:13:03.286Z,11.20
2017-08-25T23:15:29.351Z,13.07
2017-08-25T23:17:55.390Z,13.73
2017-08-25T23:20:21.454Z,8.47
2017-08-25T23:22:47.513Z,8.67
2017-08-25T23:25:13.579Z,14.80
2017-08-25T23:27:39.710Z,10.13
2017-08-25T23:30:05.778Z,10.60
2017-08-25T23:32:31.838Z,9.83
2017-08-25T23:34:57.910Z,10.97
2017-08-25T23:37:24.008Z,13.70
2017-08-25T23:39:50.079Z,10.90
2017-08-25T23:42:16.125Z,8.47
2017-08-25T23:44:42.170Z,9.53
2017-08-25T23:47:08.254Z,12.50
2017-08-25T23:49:34.314Z,9.90
2017-08-25T23:52:00.382Z,12.83
2017-08-25T23:54:26.452Z,11.33
2017-08-25T23:56:52.555Z,13.70
2017-08-25T23:59:18.606Z,11.73
